Time;durP1;ratioP1;P1;durP2;ratioP2;P2;SDS_P1;SDS_P2;PMS_P1;PMS_P2;Temp;Humidity;BMP_temperature;BMP_pressure;BME280_temperature;BME280_humidity;BME280_pressure;Samples;Min_cycle;Max_cycle;Signal;HPM_P1;HPM_P2
2022/04/02 00:00:16;;;;;;;2.93;2.70;;;4.10;99.90;;;;;;5078855;28;20388;-79
2022/04/02 00:03:00;;;;;;;6.83;3.77;;;4.10;99.90;;;;;;5115629;28;20525;-78
2022/04/02 00:05:45;;;;;;;5.80;5.10;;;4.10;99.90;;;;;;5115535;28;20758;-79
2022/04/02 00:08:30;;;;;;;6.57;3.70;;;4.20;99.90;;;;;;5115128;28;20376;-78
2022/04/02 00:11:14;;;;;;;4.53;3.67;;;4.20;99.90;;;;;;5114710;28;20486;-79
2022/04/02 00:13:59;;;;;;;16.97;4.30;;;4.20;99.90;;;;;;5099886;28;20525;-79
2022/04/02 00:16:44;;;;;;;4.07;3.73;;;4.30;99.90;;;;;;5112869;28;20392;-79
2022/04/02 00:19:30;;;;;;;8.00;3.97;;;4.30;99.90;;;;;;5097644;28;20395;-79
2022/04/02 00:22:15;;;;;;;11.70;3.90;;;4.30;99.90;;;;;;5112788;28;20708;-79
2022/04/02 00:25:00;;;;;;;6.33;4.00;;;4.30;99.90;;;;;;5111617;28;20430;-79
2022/04/02 00:27:44;;;;;;;5.47;4.30;;;4.30;99.90;;;;;;5105615;28;20470;-80
2022/04/02 00:30:29;;;;;;;6.17;5.27;;;4.30;99.90;;;;;;5107150;28;20379;-79
2022/04/02 00:33:13;;;;;;;4.17;3.77;;;4.30;99.90;;;;;;5112443;28;20406;-79
2022/04/02 00:35:58;;;;;;;6.10;3.70;;;4.30;99.90;;;;;;5113823;28;20347;-79
2022/04/02 00:38:43;;;;;;;3.30;3.00;;;4.30;99.90;;;;;;5111270;28;20406;-79
2022/04/02 00:41:28;;;;;;;4.93;4.03;;;4.30;99.90;;;;;;5110360;28;20387;-79
2022/04/02 00:44:14;;;;;;;6.10;3.53;;;4.30;99.90;;;;;;5116000;28;20443;-79
2022/04/02 00:46:59;;;;;;;15.17;3.50;;;4.20;99.90;;;;;;5105097;28;20368;-79
2022/04/02 00:49:43;;;;;;;4.37;4.07;;;4.20;99.90;;;;;;5120286;28;20376;-78
2022/04/02 00:52:29;;;;;;;6.63;3.87;;;4.20;99.90;;;;;;5119164;28;20383;-79
2022/04/02 00:55:15;;;;;;;4.10;3.73;;;4.20;99.90;;;;;;5116242;28;20438;-79
2022/04/02 00:58:02;;;;;;;6.23;4.50;;;4.30;99.90;;;;;;5115979;28;20441;-79
2022/04/02 01:00:46;;;;;;;8.70;4.20;;;4.30;99.90;;;;;;5099173;28;20387;-78
2022/04/02 01:03:31;;;;;;;3.80;3.50;;;4.20;99.90;;;;;;5099861;28;20462;-78
2022/04/02 01:06:17;;;;;;;9.63;4.57;;;4.00;99.90;;;;;;5115693;28;20384;-78
2022/04/02 01:09:02;;;;;;;6.60;4.00;;;4.10;99.90;;;;;;5112948;28;20402;-80
2022/04/02 01:11:48;;;;;;;9.27;3.80;;;4.20;99.90;;;;;;5085354;28;20491;-78
2022/04/02 01:14:32;;;;;;;4.40;3.23;;;4.20;99.90;;;;;;5115088;28;20363;-78
2022/04/02 01:17:17;;;;;;;4.13;3.13;;;4.10;99.90;;;;;;5099190;28;20460;-79
2022/04/02 01:20:01;;;;;;;4.60;3.23;;;4.10;99.90;;;;;;5114640;28;20486;-77
2022/04/02 01:22:46;;;;;;;8.50;3.00;;;4.10;99.90;;;;;;5114225;28;20403;-78
2022/04/02 01:25:32;;;;;;;3.83;2.80;;;4.00;99.90;;;;;;5112863;28;20384;-79
2022/04/02 01:28:18;;;;;;;3.63;2.00;;;3.90;99.90;;;;;;5114853;28;20492;-79
2022/04/02 01:31:05;;;;;;;5.30;3.60;;;3.90;99.90;;;;;;5112303;28;20557;-79
2022/04/02 01:33:50;;;;;;;4.97;3.13;;;3.80;99.90;;;;;;5113520;28;20435;-79
2022/04/02 01:36:35;;;;;;;3.50;3.20;;;3.80;99.90;;;;;;5111106;28;20383;-79
2022/04/02 01:39:19;;;;;;;6.63;3.37;;;3.90;99.90;;;;;;5110739;28;20387;-79
2022/04/02 01:42:06;;;;;;;3.30;3.00;;;3.80;99.90;;;;;;5109750;28;20526;-79
2022/04/02 01:44:51;;;;;;;2.87;2.67;;;3.90;99.90;;;;;;5110933;28;20452;-79
2022/04/02 01:47:36;;;;;;;2.93;2.67;;;3.90;99.90;;;;;;5106210;28;20378;-79
2022/04/02 01:50:21;;;;;;;3.17;2.87;;;4.00;99.90;;;;;;5108369;28;20461;-78
2022/04/02 01:53:05;;;;;;;3.57;2.67;;;4.00;99.90;;;;;;5109236;28;20430;-79
2022/04/02 01:55:51;;;;;;;8.63;2.90;;;4.00;99.90;;;;;;5107357;28;20436;-79
2022/04/02 01:58:35;;;;;;;3.83;2.70;;;3.90;99.90;;;;;;5109326;28;20760;-79
2022/04/02 02:01:21;;;;;;;6.50;4.20;;;4.00;99.90;;;;;;5112285;28;20415;-79
2022/04/02 02:04:06;;;;;;;2.60;2.40;;;4.00;99.90;;;;;;5114548;28;20447;-79
2022/04/02 02:06:51;;;;;;;4.37;2.90;;;3.90;99.90;;;;;;5108669;28;20384;-79
2022/04/02 02:09:36;;;;;;;4.70;2.60;;;3.90;99.90;;;;;;5104007;28;20443;-79
2022/04/02 02:12:20;;;;;;;4.00;3.07;;;3.90;99.90;;;;;;5103925;28;20774;-79
2022/04/02 02:15:06;;;;;;;3.73;3.00;;;3.90;99.90;;;;;;5103891;28;20370;-79
2022/04/02 02:17:51;;;;;;;4.90;3.17;;;3.90;99.90;;;;;;5103596;28;20393;-78
2022/04/02 02:20:36;;;;;;;3.90;2.50;;;3.60;99.90;;;;;;5103986;28;20376;-79
2022/04/02 02:23:20;;;;;;;3.13;2.83;;;3.70;99.90;;;;;;5089027;28;20423;-79
2022/04/02 02:26:05;;;;;;;4.70;3.23;;;3.80;99.90;;;;;;5089957;28;20431;-79
2022/04/02 02:28:50;;;;;;;6.40;3.53;;;3.80;99.90;;;;;;5088805;28;20376;-79
2022/04/02 02:31:35;;;;;;;10.33;4.07;;;3.90;99.90;;;;;;5105833;28;20359;-79
2022/04/02 02:37:18;;;;;;;4.30;3.87;;;3.80;99.90;;;;;;5103611;28;20730;-78
2022/04/02 02:40:04;;;;;;;5.60;4.97;;;3.80;99.90;;;;;;5104920;28;20407;-79
2022/04/02 02:42:49;;;;;;;8.03;5.23;;;3.80;99.90;;;;;;5104917;28;20776;-79
2022/04/02 02:45:34;;;;;;;5.83;5.00;;;3.70;99.90;;;;;;5104648;28;20403;-79
2022/04/02 02:48:19;;;;;;;7.03;6.10;;;3.70;99.90;;;;;;5105389;28;20396;-78
2022/04/02 02:51:04;;;;;;;6.43;5.83;;;3.70;99.90;;;;;;5104027;28;20376;-79
2022/04/02 02:53:48;;;;;;;5.57;4.93;;;3.70;99.90;;;;;;5105517;28;20446;-79
2022/04/02 02:56:33;;;;;;;5.30;4.90;;;3.60;99.90;;;;;;5104335;28;20446;-79
2022/04/02 02:59:18;;;;;;;5.63;5.10;;;3.60;99.90;;;;;;5089280;28;20391;-79
2022/04/02 03:02:03;;;;;;;6.20;5.60;;;3.50;99.90;;;;;;5104747;28;20388;-79
2022/04/02 03:04:48;;;;;;;4.80;4.37;;;3.50;99.90;;;;;;5104020;28;20439;-78
2022/04/02 03:07:48;;;;;;;5.83;5.00;;;3.50;99.90;;;;;;5104134;28;20393;-79
2022/04/02 03:10:34;;;;;;;5.13;4.70;;;3.50;99.90;;;;;;5103998;28;20423;-79
2022/04/02 03:13:18;;;;;;;5.63;4.47;;;3.50;99.90;;;;;;5104296;28;20938;-79
2022/04/02 03:16:04;;;;;;;5.30;4.50;;;3.50;99.90;;;;;;5088409;28;20426;-79
2022/04/02 03:18:49;;;;;;;5.23;4.77;;;3.60;99.90;;;;;;5104454;28;20420;-78
2022/04/02 03:21:35;;;;;;;7.07;6.50;;;3.40;99.90;;;;;;5104584;28;20352;-78
2022/04/02 03:24:19;;;;;;;7.00;6.17;;;3.40;99.90;;;;;;5103631;28;20444;-78
2022/04/02 03:27:04;;;;;;;11.00;5.33;;;3.40;99.90;;;;;;5103418;28;20370;-78
2022/04/02 03:29:49;;;;;;;8.03;6.17;;;3.50;99.90;;;;;;5105008;28;20381;-79
2022/04/02 03:32:33;;;;;;;5.60;4.80;;;3.50;99.90;;;;;;5105889;28;20462;-79
2022/04/02 03:35:20;;;;;;;8.73;4.77;;;3.50;99.90;;;;;;5105282;28;20387;-79
2022/04/02 03:38:04;;;;;;;14.83;5.73;;;3.50;99.90;;;;;;5106686;28;20730;-79
2022/04/02 03:40:49;;;;;;;8.90;6.83;;;3.50;99.90;;;;;;5102845;28;20407;-79
2022/04/02 03:43:33;;;;;;;10.07;7.00;;;3.50;99.90;;;;;;5103163;28;20540;-77
2022/04/02 03:49:14;;;;;;;8.07;6.23;;;3.50;99.90;;;;;;5105623;28;20395;-79
2022/04/02 03:51:59;;;;;;;7.90;6.83;;;3.50;99.90;;;;;;5109938;28;20392;-79
2022/04/02 03:54:44;;;;;;;9.13;6.60;;;3.50;99.90;;;;;;5104855;28;20435;-79
2022/04/02 03:57:29;;;;;;;9.77;6.63;;;3.40;99.90;;;;;;5088881;28;20525;-79
2022/04/02 04:00:15;;;;;;;7.27;6.47;;;3.40;99.90;;;;;;5075465;28;20384;-79
2022/04/02 04:02:59;;;;;;;7.37;6.67;;;3.40;99.90;;;;;;5104559;28;20418;-79
2022/04/02 04:05:43;;;;;;;15.93;7.80;;;3.30;99.90;;;;;;5088804;28;20942;-78
2022/04/02 04:08:28;;;;;;;7.30;6.60;;;3.30;99.90;;;;;;5094547;28;20423;-78
2022/04/02 04:11:14;;;;;;;7.93;6.80;;;3.20;99.90;;;;;;5110665;28;20539;-79
2022/04/02 04:13:58;;;;;;;10.30;5.73;;;3.20;99.90;;;;;;5108496;28;20389;-79
2022/04/02 04:16:44;;;;;;;10.00;7.73;;;3.30;99.90;;;;;;5103105;28;20384;-79
2022/04/02 04:19:28;;;;;;;6.50;5.80;;;3.20;99.90;;;;;;5086483;28;20381;-79
2022/04/02 04:22:13;;;;;;;12.23;7.40;;;3.20;99.90;;;;;;5101102;28;20446;-79
2022/04/02 04:24:57;;;;;;;10.00;8.27;;;3.20;99.90;;;;;;5101794;28;20470;-79
2022/04/02 04:27:42;;;;;;;11.90;7.27;;;3.30;99.90;;;;;;5100753;28;20915;-79
2022/04/02 04:30:27;;;;;;;6.70;6.10;;;3.20;99.90;;;;;;5102080;28;20382;-79
2022/04/02 04:33:12;;;;;;;8.33;7.50;;;3.10;99.90;;;;;;5101613;28;20384;-79
2022/04/02 04:35:56;;;;;;;12.40;7.60;;;3.10;99.90;;;;;;5101757;28;20402;-79
2022/04/02 04:38:42;;;;;;;9.93;5.47;;;3.10;99.90;;;;;;5101270;28;20376;-79
2022/04/02 04:41:26;;;;;;;12.67;6.27;;;3.00;99.90;;;;;;5101684;28;20396;-79
2022/04/02 04:44:10;;;;;;;9.73;6.67;;;3.00;99.90;;;;;;5102030;28;20451;-78
2022/04/02 04:46:55;;;;;;;10.77;6.90;;;3.10;99.90;;;;;;5101821;28;20395;-79
2022/04/02 04:49:40;;;;;;;7.70;6.90;;;3.00;99.90;;;;;;5107519;28;20392;-79
2022/04/02 04:52:25;;;;;;;6.20;5.33;;;3.10;99.90;;;;;;5106467;28;20741;-79
2022/04/02 04:55:09;;;;;;;6.67;5.93;;;3.10;99.90;;;;;;5106350;28;20415;-79
2022/04/02 04:57:54;;;;;;;11.70;6.07;;;3.10;99.90;;;;;;5105021;28;20388;-79
2022/04/02 05:00:41;;;;;;;10.70;6.33;;;3.10;99.90;;;;;;5104134;28;20400;-80
2022/04/02 05:03:26;;;;;;;7.13;6.13;;;3.10;99.90;;;;;;5108121;28;20497;-77
2022/04/02 05:06:12;;;;;;;15.30;6.87;;;3.10;99.90;;;;;;5093877;28;20467;-80
2022/04/02 05:08:56;;;;;;;7.33;5.73;;;3.20;99.90;;;;;;5092562;28;20431;-79
2022/04/02 05:11:43;;;;;;;7.80;6.17;;;3.20;99.90;;;;;;5106841;28;20536;-80
2022/04/02 05:14:29;;;;;;;6.00;4.97;;;3.10;99.90;;;;;;5109852;28;20812;-79
2022/04/02 05:17:13;;;;;;;8.50;4.90;;;3.10;99.90;;;;;;5112688;28;20358;-79
2022/04/02 05:19:58;;;;;;;6.33;5.13;;;3.10;99.90;;;;;;5111647;28;20398;-79
2022/04/02 05:22:43;;;;;;;6.17;4.90;;;3.20;99.90;;;;;;5109925;28;20456;-79
2022/04/02 05:25:28;;;;;;;4.67;3.70;;;3.00;99.90;;;;;;5110021;28;20388;-79
2022/04/02 05:28:13;;;;;;;5.63;4.23;;;3.10;99.90;;;;;;5109890;28;20373;-78
2022/04/02 05:30:58;;;;;;;3.47;3.17;;;3.20;99.90;;;;;;5105330;28;20376;-78
2022/04/02 05:33:42;;;;;;;6.57;3.90;;;3.20;99.90;;;;;;5105067;28;20442;-79
2022/04/02 05:36:27;;;;;;;5.80;4.07;;;3.20;99.90;;;;;;5105589;28;20442;-78
2022/04/02 05:39:13;;;;;;;5.63;3.30;;;3.20;99.90;;;;;;5092780;28;20439;-79
2022/04/02 05:41:57;;;;;;;8.17;5.63;;;3.20;99.90;;;;;;5105359;28;20442;-79
2022/04/02 05:44:42;;;;;;;5.50;5.10;;;3.20;99.90;;;;;;5095558;28;20421;-79
2022/04/02 05:47:27;;;;;;;5.97;2.97;;;3.20;99.90;;;;;;5109263;28;20395;-79
2022/04/02 05:50:12;;;;;;;5.30;4.80;;;3.20;99.90;;;;;;5106670;28;20391;-79
2022/04/02 05:52:57;;;;;;;4.23;3.90;;;3.20;99.90;;;;;;5107630;28;20388;-79
2022/04/02 05:55:42;;;;;;;4.80;4.40;;;3.20;99.90;;;;;;5092618;28;20456;-79
2022/04/02 05:58:27;;;;;;;4.00;3.00;;;3.10;99.90;;;;;;5110639;28;20388;-79
2022/04/02 06:01:12;;;;;;;6.40;4.20;;;3.10;99.90;;;;;;5095963;28;20423;-79
2022/04/02 06:03:56;;;;;;;5.40;4.70;;;3.10;99.90;;;;;;5111630;28;20520;-79
2022/04/02 06:06:41;;;;;;;5.80;2.80;;;3.20;99.90;;;;;;5112928;28;20383;-79
2022/04/02 06:09:25;;;;;;;4.17;3.77;;;3.20;99.90;;;;;;5111807;28;20513;-79
2022/04/02 06:12:10;;;;;;;14.17;4.00;;;3.20;99.90;;;;;;5096514;28;20377;-79
2022/04/02 06:14:55;;;;;;;3.60;3.20;;;3.30;99.90;;;;;;5108002;28;20465;-79
2022/04/02 06:17:39;;;;;;;4.00;3.70;;;3.30;99.90;;;;;;5104564;28;20388;-79
2022/04/02 06:20:24;;;;;;;4.40;3.03;;;3.30;99.90;;;;;;5104809;28;20392;-79
2022/04/02 06:23:09;;;;;;;3.87;3.50;;;3.30;99.90;;;;;;5107535;28;20494;-79
2022/04/02 06:25:54;;;;;;;4.63;4.00;;;3.30;99.90;;;;;;5104759;28;20371;-80
2022/04/02 06:28:40;;;;;;;5.03;4.60;;;3.30;99.90;;;;;;5106221;28;20722;-79
2022/04/02 06:31:24;;;;;;;7.30;4.40;;;3.30;99.90;;;;;;5110858;28;20398;-79
2022/04/02 06:34:11;;;;;;;5.50;3.77;;;3.40;99.90;;;;;;5109891;28;20885;-80
2022/04/02 06:36:55;;;;;;;5.53;4.37;;;3.30;99.90;;;;;;5106025;28;20500;-79
2022/04/02 06:39:40;;;;;;;6.57;4.80;;;3.30;99.90;;;;;;5104596;28;20399;-80
2022/04/02 06:42:24;;;;;;;4.37;3.97;;;3.30;99.90;;;;;;5106250;28;20550;-79
2022/04/02 06:45:09;;;;;;;4.20;3.30;;;3.40;99.90;;;;;;5107925;28;20458;-79
2022/04/02 06:47:53;;;;;;;3.93;2.83;;;3.20;99.90;;;;;;5107156;28;20479;-79
2022/04/02 06:50:38;;;;;;;3.80;3.50;;;3.30;99.90;;;;;;5104280;28;20402;-79
2022/04/02 06:53:23;;;;;;;3.50;3.20;;;3.30;99.90;;;;;;5105757;28;20392;-79
2022/04/02 06:56:08;;;;;;;6.90;4.87;;;3.30;99.90;;;;;;5109477;28;20435;-79
2022/04/02 06:58:53;;;;;;;4.60;4.20;;;3.30;99.90;;;;;;5092598;28;20381;-80
2022/04/02 07:01:38;;;;;;;4.70;4.20;;;3.20;99.90;;;;;;5105171;28;20870;-78
2022/04/02 07:04:23;;;;;;;8.03;3.80;;;3.20;99.90;;;;;;5102631;28;20958;-79
2022/04/02 07:07:08;;;;;;;7.63;4.70;;;3.20;99.90;;;;;;5088689;28;20464;-79
2022/04/02 07:09:52;;;;;;;5.13;4.73;;;3.10;99.90;;;;;;5107767;28;20459;-80
2022/04/02 07:12:37;;;;;;;6.90;6.20;;;3.20;99.90;;;;;;5105560;28;20384;-79
2022/04/02 07:15:22;;;;;;;5.20;4.70;;;3.20;99.90;;;;;;5110563;28;20388;-79
2022/04/02 07:18:09;;;;;;;8.83;5.53;;;3.20;99.90;;;;;;5110153;28;20362;-79
2022/04/02 07:20:58;;;;;;;6.17;4.17;;;3.10;99.90;;;;;;5090456;28;20444;-79
2022/04/02 07:23:45;;;;;;;5.83;4.63;;;3.20;99.90;;;;;;5089903;28;20491;-79
2022/04/02 07:26:32;;;;;;;9.87;6.03;;;3.20;99.90;;;;;;5083482;28;20397;-79
2022/04/02 07:29:16;;;;;;;4.60;4.20;;;3.20;99.90;;;;;;5070626;28;20400;-79
2022/04/02 07:32:01;;;;;;;5.73;4.20;;;3.00;99.90;;;;;;5083286;28;20432;-79
2022/04/02 07:34:46;;;;;;;4.30;4.00;;;3.30;99.90;;;;;;5084636;28;20396;-79
2022/04/02 07:37:52;;;;;;;6.33;4.67;;;3.50;99.90;;;;;;5088830;28;20420;-79
2022/04/02 07:41:06;;;;;;;4.87;4.47;;;3.40;99.90;;;;;;5083876;28;20516;-79
2022/04/02 07:43:58;;;;;;;5.80;5.30;;;3.40;99.90;;;;;;5055091;28;20456;-79
2022/04/02 07:46:44;;;;;;;8.07;4.97;;;3.00;99.90;;;;;;5081479;28;20429;-80
2022/04/02 07:49:30;;;;;;;6.27;5.67;;;3.20;99.90;;;;;;5084348;28;20464;-79
2022/04/02 07:52:14;;;;;;;5.80;5.20;;;3.50;99.90;;;;;;5088654;28;20427;-78
2022/04/02 07:55:01;;;;;;;5.43;4.80;;;3.60;99.90;;;;;;5102475;28;20429;-78
2022/04/02 07:57:49;;;;;;;9.93;5.30;;;3.70;99.90;;;;;;5085641;28;20470;-78
2022/04/02 08:00:35;;;;;;;7.47;4.77;;;3.80;99.90;;;;;;5084905;28;20352;-79
2022/04/02 08:03:23;;;;;;;5.23;4.73;;;3.80;99.90;;;;;;5083822;28;20878;-78
2022/04/02 08:06:08;;;;;;;4.57;3.50;;;4.00;99.90;;;;;;5083451;28;20404;-79
2022/04/02 08:08:55;;;;;;;6.70;6.03;;;3.70;99.90;;;;;;5083817;28;20408;-78
2022/04/02 08:11:40;;;;;;;5.60;4.37;;;3.90;99.90;;;;;;5086470;28;20397;-79
2022/04/02 08:14:27;;;;;;;5.00;4.40;;;3.60;99.90;;;;;;5081213;28;20377;-78
2022/04/02 08:17:12;;;;;;;5.97;4.47;;;4.00;99.90;;;;;;5087924;28;20381;-79
2022/04/02 08:19:59;;;;;;;7.13;4.97;;;4.10;99.90;;;;;;5088176;28;20820;-79
2022/04/02 08:22:44;;;;;;;4.93;4.50;;;4.00;99.90;;;;;;5067395;28;20389;-79
2022/04/02 08:25:29;;;;;;;9.60;5.80;;;4.20;99.90;;;;;;5067914;28;20881;-79
2022/04/02 08:28:24;;;;;;;6.87;3.93;;;3.90;99.90;;;;;;5067339;28;20433;-79
2022/04/02 08:31:24;;;;;;;5.30;4.37;;;4.10;99.90;;;;;;5067689;28;20484;-79
2022/04/02 08:34:20;;;;;;;4.53;3.73;;;4.20;99.90;;;;;;5065421;28;20400;-79
2022/04/02 08:37:22;;;;;;;5.80;5.20;;;4.10;99.90;;;;;;5061043;28;20396;-78
2022/04/02 08:40:42;;;;;;;4.20;3.90;;;4.10;99.90;;;;;;5049151;28;20389;-79
2022/04/02 08:43:51;;;;;;;4.00;3.70;;;3.50;99.90;;;;;;5049315;28;21031;-79
2022/04/02 08:47:10;;;;;;;7.80;4.97;;;3.10;99.90;;;;;;5063558;28;20444;-79
2022/04/02 08:50:14;;;;;;;6.83;5.00;;;3.20;99.90;;;;;;5063430;28;20756;-78
2022/04/02 08:53:20;;;;;;;4.40;3.37;;;3.50;99.90;;;;;;5071855;28;20407;-78
2022/04/02 08:56:09;;;;;;;5.87;5.03;;;3.90;99.90;;;;;;5088026;28;20570;-79
2022/04/02 08:59:04;;;;;;;6.33;4.70;;;4.10;99.90;;;;;;5058282;28;20401;-80
2022/04/02 09:02:03;;;;;;;8.50;4.87;;;3.20;99.90;;;;;;5103437;28;20432;-79
2022/04/02 09:05:19;;;;;;;5.03;4.47;;;3.90;99.90;;;;;;5087889;28;20444;-79
2022/04/02 09:08:30;;;;;;;6.30;4.87;;;4.10;99.90;;;;;;5086511;28;20424;-79
2022/04/02 09:11:27;;;;;;;6.23;5.37;;;4.40;99.90;;;;;;5084547;28;20463;-79
2022/04/02 09:14:40;;;;;;;5.63;4.40;;;4.60;99.90;;;;;;5085387;28;20569;-78
2022/04/02 09:17:38;;;;;;;5.47;4.60;;;4.80;99.90;;;;;;5087500;28;20420;-79
2022/04/02 09:20:43;;;;;;;6.10;5.50;;;5.00;99.90;;;;;;5100074;28;20462;-79
2022/04/02 09:23:56;;;;;;;7.70;5.33;;;5.10;99.90;;;;;;5085836;28;20546;-79
2022/04/02 09:27:06;;;;;;;7.87;5.40;;;4.70;99.90;;;;;;5102657;28;20411;-78
2022/04/02 09:30:22;;;;;;;7.23;5.67;;;4.90;99.90;;;;;;5104867;28;20432;-78
2022/04/02 09:33:34;;;;;;;6.23;5.00;;;5.00;99.90;;;;;;5090413;28;20396;-79
2022/04/02 09:36:30;;;;;;;6.77;5.33;;;4.80;99.90;;;;;;5107405;28;20437;-79
2022/04/02 09:39:38;;;;;;;4.87;4.47;;;4.30;99.90;;;;;;5078406;28;20388;-78
2022/04/02 09:42:43;;;;;;;5.70;5.20;;;4.10;99.90;;;;;;5091911;28;20872;-79
2022/04/02 09:45:38;;;;;;;9.33;6.23;;;4.50;99.90;;;;;;5096396;28;20428;-79
2022/04/02 09:48:30;;;;;;;8.00;6.70;;;5.00;99.90;;;;;;5092567;28;20450;-81
2022/04/02 09:51:19;;;;;;;7.10;6.40;;;5.30;99.90;;;;;;5085459;28;20381;-81
2022/04/02 09:54:13;;;;;;;7.80;6.43;;;4.30;99.90;;;;;;5055436;28;20463;-82
2022/04/02 09:57:09;;;;;;;5.43;4.93;;;4.20;99.90;;;;;;5069978;28;20405;-82
2022/04/02 10:00:10;;;;;;;6.20;5.43;;;4.10;99.90;;;;;;5070393;28;20382;-81
2022/04/02 10:03:08;;;;;;;6.17;5.57;;;3.80;99.90;;;;;;5098347;28;20388;-80
2022/04/02 10:06:15;;;;;;;6.70;6.10;;;4.30;99.90;;;;;;5098559;28;20409;-80
2022/04/02 10:09:07;;;;;;;23.73;6.53;;;4.60;99.90;;;;;;5075671;28;20404;-80
2022/04/02 10:11:56;;;;;;;6.13;5.53;;;4.40;99.90;;;;;;5085225;28;20439;-80
2022/04/02 10:14:42;;;;;;;6.40;5.80;;;4.20;99.90;;;;;;5068547;28;20400;-81
2022/04/02 10:17:29;;;;;;;10.73;5.07;;;4.50;99.90;;;;;;5083955;28;20413;-81
2022/04/02 10:20:17;;;;;;;9.10;5.93;;;4.20;99.90;;;;;;5083626;28;20447;-80
2022/04/02 10:23:12;;;;;;;8.60;6.90;;;4.70;99.90;;;;;;5085572;28;20456;-81
2022/04/02 10:26:10;;;;;;;5.97;5.17;;;5.10;99.90;;;;;;5095801;28;20511;-81
2022/04/02 10:28:57;;;;;;;7.50;6.80;;;5.10;99.90;;;;;;5087927;28;20403;-80
2022/04/02 10:31:50;;;;;;;9.47;7.10;;;4.70;99.90;;;;;;5104709;28;20436;-81
2022/04/02 10:34:55;;;;;;;10.20;6.10;;;5.20;99.90;;;;;;5088737;28;20379;-81
2022/04/02 10:37:44;;;;;;;9.00;6.70;;;5.00;99.90;;;;;;5070934;28;20396;-81
2022/04/02 10:40:31;;;;;;;13.80;5.50;;;5.40;99.90;;;;;;5084488;28;20431;-80
2022/04/02 10:43:25;;;;;;;6.17;5.50;;;5.50;99.90;;;;;;5083730;28;20440;-81
2022/04/02 10:46:14;;;;;;;5.63;4.80;;;5.30;99.90;;;;;;5068600;28;20381;-81
2022/04/02 10:49:03;;;;;;;6.23;5.03;;;5.40;99.90;;;;;;5085171;28;20506;-81
2022/04/02 10:51:52;;;;;;;6.33;5.77;;;5.40;99.90;;;;;;5118403;28;20452;-81
2022/04/02 10:54:40;;;;;;;5.83;5.07;;;5.50;99.90;;;;;;5124538;28;20411;-81
2022/04/02 10:57:28;;;;;;;5.70;5.30;;;5.50;99.90;;;;;;5110214;28;20445;-80
2022/04/02 11:00:14;;;;;;;7.37;5.23;;;4.50;99.90;;;;;;5125959;28;20362;-80
2022/04/02 11:03:05;;;;;;;8.23;5.53;;;5.00;99.90;;;;;;5124417;28;20383;-80
2022/04/02 11:05:50;;;;;;;14.40;6.87;;;5.10;99.90;;;;;;5125683;28;20399;-80
2022/04/02 11:08:35;;;;;;;8.07;6.60;;;5.40;99.90;;;;;;5125957;28;20879;-80
2022/04/02 11:11:24;;;;;;;6.93;5.57;;;5.30;99.90;;;;;;5126679;28;20462;-80
2022/04/02 11:14:09;;;;;;;8.43;6.47;;;5.30;99.90;;;;;;5127805;28;20373;-82
2022/04/02 11:16:53;;;;;;;7.17;5.90;;;5.40;99.90;;;;;;5110663;28;20426;-81
2022/04/02 11:23:11;;;;;;;6.20;5.63;;;5.70;99.90;;;;;;5128255;28;20487;-81
2022/04/02 11:26:03;;;;;;;5.73;5.03;;;5.80;99.90;;;;;;5099330;28;20472;-80
2022/04/02 11:28:52;;;;;;;4.60;4.20;;;5.80;99.90;;;;;;5115857;28;20375;-80
2022/04/02 11:31:38;;;;;;;5.90;4.50;;;5.20;99.90;;;;;;5125819;28;20375;-81
2022/04/02 11:34:28;;;;;;;5.70;5.20;;;5.30;99.90;;;;;;5108827;28;20447;-82
2022/04/02 11:37:15;;;;;;;6.50;4.93;;;5.60;99.90;;;;;;5124792;28;20403;-81
2022/04/02 11:40:04;;;;;;;6.30;5.67;;;5.70;99.90;;;;;;5094650;28;20402;-80
2022/04/02 11:42:48;;;;;;;5.70;5.20;;;5.90;99.90;;;;;;5108825;28;20438;-80
2022/04/02 11:45:36;;;;;;;26.83;5.70;;;5.80;99.90;;;;;;5124671;28;20395;-79
2022/04/02 11:48:28;;;;;;;6.33;5.33;;;5.70;99.90;;;;;;5108840;28;20398;-82
2022/04/02 11:51:16;;;;;;;7.03;5.40;;;5.60;99.90;;;;;;5124785;28;20380;-81
2022/04/02 11:54:07;;;;;;;6.90;5.70;;;6.00;99.90;;;;;;5107779;28;20458;-80
2022/04/02 11:57:09;;;;;;;6.73;6.03;;;6.00;99.90;;;;;;5125117;28;20485;-80
2022/04/02 11:59:57;;;;;;;6.63;5.93;;;6.40;99.90;;;;;;5124857;28;20394;-80
2022/04/02 12:02:43;;;;;;;13.43;6.37;;;6.60;99.90;;;;;;5124065;28;20407;-81
2022/04/02 12:05:39;;;;;;;5.03;4.63;;;6.70;99.90;;;;;;5123739;28;20387;-81
2022/04/02 12:08:29;;;;;;;6.80;5.03;;;6.20;99.90;;;;;;5108044;28;20380;-81
2022/04/02 12:11:28;;;;;;;8.90;4.70;;;6.20;99.90;;;;;;5123757;28;20458;-81
2022/04/02 12:14:27;;;;;;;6.10;5.57;;;6.30;99.90;;;;;;5124234;28;20410;-80
2022/04/02 12:17:14;;;;;;;8.73;5.57;;;6.00;99.90;;;;;;5108276;28;20430;-81
2022/04/02 12:20:13;;;;;;;4.90;4.50;;;6.40;99.90;;;;;;5126324;28;20407;-81
2022/04/02 12:23:10;;;;;;;10.23;5.13;;;6.00;99.90;;;;;;5108952;28;20373;-81
2022/04/02 12:25:57;;;;;;;4.80;3.90;;;6.10;99.90;;;;;;5127471;28;20399;-81
2022/04/02 12:28:46;;;;;;;6.77;5.23;;;6.30;99.90;;;;;;5099129;28;20871;-81
2022/04/02 12:31:31;;;;;;;7.20;4.60;;;6.60;99.90;;;;;;5128785;28;20398;-81
2022/04/02 12:34:21;;;;;;;5.87;5.27;;;6.60;99.90;;;;;;5113572;28;20366;-81
2022/04/02 12:37:05;;;;;;;5.30;4.80;;;6.10;99.90;;;;;;5128184;28;20395;-81
2022/04/02 12:39:52;;;;;;;6.83;5.17;;;6.50;99.90;;;;;;5113588;28;20443;-81
2022/04/02 12:42:40;;;;;;;8.97;5.63;;;6.70;99.90;;;;;;5085984;28;20409;-82
2022/04/02 12:45:27;;;;;;;5.80;4.93;;;6.70;99.90;;;;;;5086124;28;20508;-80
2022/04/02 12:48:20;;;;;;;4.73;4.17;;;5.80;99.90;;;;;;5086042;28;20392;-81
2022/04/02 12:51:27;;;;;;;6.70;4.93;;;6.40;99.90;;;;;;5088573;28;20401;-80
2022/04/02 12:54:12;;;;;;;5.10;4.70;;;6.10;99.90;;;;;;5074108;28;20447;-81
2022/04/02 12:57:12;;;;;;;4.30;4.00;;;6.40;99.90;;;;;;5084730;28;20395;-81
2022/04/02 12:59:56;;;;;;;5.93;5.33;;;6.50;99.90;;;;;;5057010;28;20401;-81
2022/04/02 13:02:44;;;;;;;4.50;4.10;;;6.60;99.90;;;;;;5085316;28;20431;-81
2022/04/02 13:05:50;;;;;;;5.00;4.50;;;6.50;99.90;;;;;;5085504;28;20496;-81
2022/04/02 13:08:50;;;;;;;4.07;3.67;;;6.60;99.90;;;;;;5084624;28;20431;-81
2022/04/02 13:12:13;;;;;;;4.00;3.67;;;6.80;99.90;;;;;;5071286;28;20864;-79
2022/04/02 13:15:04;;;;;;;4.87;3.83;;;7.00;99.90;;;;;;5071338;28;20549;-80
2022/04/02 13:20:51;;;;;;;4.47;4.00;;;6.90;99.90;;;;;;5088234;28;20877;-81
2022/04/02 13:24:13;;;;;;;4.03;2.77;;;7.10;99.90;;;;;;5043776;28;20480;-81
2022/04/02 13:27:35;;;;;;;7.90;6.03;;;7.20;99.90;;;;;;5087190;28;20396;-82
2022/04/02 13:30:32;;;;;;;4.60;3.63;;;7.10;99.90;;;;;;5090338;28;20412;-82
2022/04/02 13:33:54;;;;;;;3.77;3.30;;;7.20;99.90;;;;;;5089565;28;20392;-82
2022/04/02 13:36:46;;;;;;;3.60;3.13;;;7.30;99.90;;;;;;5090066;28;20485;-80
2022/04/02 13:39:41;;;;;;;3.23;2.93;;;5.90;99.90;;;;;;5089573;28;20435;-80
2022/04/02 13:42:32;;;;;;;5.30;2.93;;;6.00;99.90;;;;;;5036755;28;20422;-82
2022/04/02 13:45:19;;;;;;;4.73;3.50;;;5.80;99.90;;;;;;5058415;28;20469;-81
2022/04/02 13:48:06;;;;;;;3.97;3.63;;;6.30;99.90;;;;;;5070878;28;20390;-80
2022/04/02 13:51:09;;;;;;;6.83;4.37;;;6.40;99.90;;;;;;5071100;28;20444;-81
2022/04/02 13:54:04;;;;;;;3.63;3.20;;;6.60;99.90;;;;;;5072663;28;20417;-80
2022/04/02 13:56:58;;;;;;;5.53;3.77;;;6.70;99.90;;;;;;5062542;28;20446;-80
2022/04/02 14:00:04;;;;;;;6.20;4.43;;;6.60;99.90;;;;;;5076736;28;20393;-81
2022/04/02 14:02:52;;;;;;;4.60;4.10;;;6.30;99.90;;;;;;5077975;28;20406;-81
2022/04/02 14:05:38;;;;;;;3.77;3.47;;;6.70;99.90;;;;;;5062592;28;20440;-80
2022/04/02 14:08:42;;;;;;;17.23;3.73;;;6.50;99.90;;;;;;5075158;28;20405;-81
2022/04/02 14:11:36;;;;;;;5.90;4.17;;;6.90;99.90;;;;;;5046027;28;20468;-80
2022/04/02 14:14:25;;;;;;;8.70;6.07;;;7.00;99.90;;;;;;5133586;28;20393;-82
2022/04/02 14:17:15;;;;;;;10.47;5.60;;;6.90;99.90;;;;;;5139215;28;20495;-81
2022/04/02 14:20:08;;;;;;;8.10;5.30;;;6.70;99.90;;;;;;5124685;28;20405;-81
2022/04/02 14:23:09;;;;;;;7.63;5.70;;;6.70;99.90;;;;;;5095833;28;20488;-80
2022/04/02 14:26:15;;;;;;;4.33;4.03;;;6.80;99.90;;;;;;5140057;28;20446;-80
2022/04/02 14:29:31;;;;;;;5.70;5.00;;;6.80;99.90;;;;;;5139620;28;20457;-81
2022/04/02 14:32:47;;;;;;;3.93;3.60;;;6.30;99.90;;;;;;5127503;28;20407;-81
2022/04/02 14:35:57;;;;;;;4.47;4.10;;;6.50;99.90;;;;;;5139579;28;20402;-81
2022/04/02 14:39:09;;;;;;;4.87;3.97;;;6.80;99.90;;;;;;5132224;28;20853;-80
2022/04/02 14:42:39;;;;;;;4.40;4.10;;;6.30;99.90;;;;;;5075872;28;20493;-81
2022/04/02 14:46:02;;;;;;;6.20;3.97;;;6.60;99.90;;;;;;5097500;28;20462;-81
2022/04/02 14:49:17;;;;;;;6.23;4.43;;;6.30;99.90;;;;;;5084998;28;20396;-79
2022/04/02 14:52:26;;;;;;;6.23;5.63;;;6.40;99.90;;;;;;5089386;28;20401;-79
2022/04/02 14:55:42;;;;;;;5.33;4.80;;;6.30;99.90;;;;;;5089157;28;20436;-78
2022/04/02 14:58:59;;;;;;;5.73;4.90;;;6.30;99.90;;;;;;5087541;28;20465;-79
2022/04/02 15:02:23;;;;;;;4.10;3.70;;;6.70;99.90;;;;;;5087075;28;20409;-79
2022/04/02 15:05:43;;;;;;;4.17;3.90;;;6.90;99.90;;;;;;5086255;28;20464;-80
2022/04/02 15:08:51;;;;;;;7.23;3.70;;;6.80;99.90;;;;;;5087369;28;20456;-79